Time;durP1;ratioP1;P1;durP2;ratioP2;P2;SDS_P1;SDS_P2;PMS_P1;PMS_P2;Temp;Humidity;BMP_temperature;BMP_pressure;BME280_temperature;BME280_humidity;BME280_pressure;Samples;Min_cycle;Max_cycle;Signal;HPM_P1;HPM_P2
2023/12/06 00:00:46;;;;;;;14.68;11.43;;;3.80;99.90;;;;;;5096534;28;20223;-63
2023/12/06 00:03:12;;;;;;;14.98;11.68;;;3.80;99.90;;;;;;5095993;28;20211;-62
2023/12/06 00:05:40;;;;;;;16.80;12.50;;;3.80;99.90;;;;;;5095682;28;20204;-62
2023/12/06 00:08:08;;;;;;;12.75;11.27;;;3.80;99.90;;;;;;5096193;28;20283;-62
2023/12/06 00:10:34;;;;;;;13.93;11.25;;;3.80;99.90;;;;;;5094927;28;20196;-62
2023/12/06 00:13:01;;;;;;;14.55;12.30;;;3.90;99.90;;;;;;5096393;28;20224;-62
2023/12/06 00:15:28;;;;;;;15.65;11.57;;;3.90;99.90;;;;;;5097975;28;20206;-62
2023/12/06 00:17:55;;;;;;;15.93;11.80;;;3.90;99.90;;;;;;5097306;28;20566;-63
2023/12/06 00:20:21;;;;;;;13.38;11.90;;;3.90;99.90;;;;;;5097271;28;20214;-61
2023/12/06 00:22:48;;;;;;;13.35;11.40;;;3.90;99.90;;;;;;5097385;28;20320;-62
2023/12/06 00:25:16;;;;;;;15.10;11.10;;;3.90;99.90;;;;;;5097189;28;20288;-61
2023/12/06 00:27:43;;;;;;;13.43;12.02;;;3.90;99.90;;;;;;5096613;28;20203;-61
2023/12/06 00:30:11;;;;;;;14.90;11.75;;;3.90;99.90;;;;;;5099723;28;20231;-62
2023/12/06 00:32:38;;;;;;;13.45;12.00;;;3.90;99.90;;;;;;5099949;28;20220;-61
2023/12/06 00:35:07;;;;;;;13.00;11.60;;;3.90;99.90;;;;;;5098190;28;20208;-62
2023/12/06 00:37:34;;;;;;;12.40;11.10;;;3.90;99.90;;;;;;5097890;28;20326;-61
2023/12/06 00:40:00;;;;;;;15.55;12.45;;;3.90;99.90;;;;;;5097045;28;20214;-61
2023/12/06 00:42:29;;;;;;;13.43;12.02;;;3.80;99.90;;;;;;5097742;28;20254;-61
2023/12/06 00:44:55;;;;;;;15.13;12.00;;;3.90;99.90;;;;;;5096927;28;20669;-61
2023/12/06 00:47:22;;;;;;;12.50;10.07;;;3.80;99.90;;;;;;5097006;28;20670;-62
2023/12/06 00:49:49;;;;;;;15.63;11.25;;;3.80;99.90;;;;;;5096697;28;20200;-61
2023/12/06 00:52:16;;;;;;;12.02;10.32;;;3.90;99.90;;;;;;5097812;28;20725;-60
2023/12/06 00:54:42;;;;;;;12.50;11.20;;;3.90;99.90;;;;;;5098216;28;20200;-61
2023/12/06 00:57:09;;;;;;;12.45;10.75;;;3.90;99.90;;;;;;5097146;28;20216;-62
2023/12/06 00:59:37;;;;;;;13.00;10.20;;;3.90;99.90;;;;;;5096733;28;20201;-63
2023/12/06 01:02:04;;;;;;;15.77;11.52;;;3.90;99.90;;;;;;5096683;28;20232;-61
2023/12/06 01:04:31;;;;;;;14.65;11.10;;;3.90;99.90;;;;;;5097761;28;20646;-61
2023/12/06 01:06:58;;;;;;;11.60;9.90;;;3.90;99.90;;;;;;5098662;28;20287;-61
2023/12/06 01:09:25;;;;;;;11.90;10.57;;;3.90;99.90;;;;;;5098367;28;20231;-60
2023/12/06 01:11:52;;;;;;;12.52;11.07;;;3.90;99.90;;;;;;5097692;28;20315;-60
2023/12/06 01:14:19;;;;;;;12.32;11.02;;;3.90;99.90;;;;;;5098355;28;20299;-61
2023/12/06 01:16:47;;;;;;;13.32;11.18;;;3.90;99.90;;;;;;5098376;28;20204;-60
2023/12/06 01:19:16;;;;;;;14.38;10.32;;;3.90;99.90;;;;;;5096972;28;20229;-59
2023/12/06 01:21:42;;;;;;;12.95;10.52;;;3.80;99.90;;;;;;5097802;28;20221;-60
2023/12/06 01:24:09;;;;;;;13.73;11.07;;;3.80;99.90;;;;;;5097344;28;20207;-62
2023/12/06 01:26:36;;;;;;;12.68;10.48;;;3.80;99.90;;;;;;5096722;28;20200;-61
2023/12/06 01:29:04;;;;;;;12.07;10.70;;;3.70;99.90;;;;;;5096644;28;20196;-61
2023/12/06 01:31:31;;;;;;;11.38;8.85;;;3.60;99.90;;;;;;5095862;28;20224;-61
2023/12/06 01:34:00;;;;;;;12.73;9.30;;;3.50;99.90;;;;;;5095791;28;20223;-61
2023/12/06 01:36:27;;;;;;;9.50;7.15;;;3.50;99.90;;;;;;5098048;28;20200;-61
2023/12/06 01:38:54;;;;;;;8.90;7.15;;;3.40;99.90;;;;;;5098068;28;20220;-61
2023/12/06 01:41:20;;;;;;;9.50;8.57;;;3.30;99.90;;;;;;5096112;28;20224;-61
2023/12/06 01:43:47;;;;;;;12.73;8.00;;;3.30;99.90;;;;;;5096775;28;20212;-61
2023/12/06 01:46:14;;;;;;;9.43;8.35;;;3.30;99.90;;;;;;5095898;28;20211;-61
2023/12/06 01:48:43;;;;;;;10.60;8.60;;;3.20;99.90;;;;;;5096623;28;20207;-60
2023/12/06 01:51:12;;;;;;;13.07;9.05;;;3.20;99.90;;;;;;5096121;28;20713;-61
2023/12/06 01:53:40;;;;;;;12.68;9.82;;;3.10;99.90;;;;;;5096169;28;20200;-61
2023/12/06 01:56:08;;;;;;;9.55;8.27;;;3.10;99.90;;;;;;5096037;28;20204;-61
2023/12/06 01:58:37;;;;;;;9.77;7.50;;;3.00;99.90;;;;;;5097101;28;20212;-61
2023/12/06 02:01:04;;;;;;;9.00;7.82;;;3.00;99.90;;;;;;5097592;28;20200;-63
2023/12/06 02:03:32;;;;;;;9.15;7.97;;;2.90;99.90;;;;;;5099340;28;20184;-60
2023/12/06 02:06:00;;;;;;;9.07;7.05;;;2.90;99.90;;;;;;5098438;28;20210;-61
2023/12/06 02:08:29;;;;;;;9.05;7.03;;;2.80;99.90;;;;;;5099064;28;20279;-61
2023/12/06 02:10:56;;;;;;;8.48;6.80;;;2.80;99.90;;;;;;5101105;28;20200;-62
2023/12/06 02:13:22;;;;;;;7.60;6.78;;;2.80;99.90;;;;;;5100728;28;20200;-61
2023/12/06 02:15:50;;;;;;;7.60;6.80;;;2.70;99.90;;;;;;5098290;28;20211;-61
2023/12/06 02:18:18;;;;;;;7.53;6.22;;;2.70;99.90;;;;;;5095859;28;20220;-61
2023/12/06 02:20:45;;;;;;;7.82;6.28;;;2.70;99.90;;;;;;5095767;28;20196;-60
2023/12/06 02:23:13;;;;;;;7.20;6.50;;;2.60;99.90;;;;;;5096082;28;20688;-61
2023/12/06 02:25:42;;;;;;;7.18;6.30;;;2.60;99.90;;;;;;5096615;28;20204;-61
2023/12/06 02:28:09;;;;;;;8.90;6.43;;;2.60;99.90;;;;;;5096125;28;20192;-61
2023/12/06 02:30:35;;;;;;;6.93;6.22;;;2.60;99.90;;;;;;5096208;28;20204;-61
2023/12/06 02:33:02;;;;;;;7.57;5.60;;;2.60;99.90;;;;;;5095655;28;20224;-61
2023/12/06 02:35:32;;;;;;;6.55;5.95;;;2.50;99.90;;;;;;5095396;28;20207;-61
2023/12/06 02:38:01;;;;;;;6.93;5.85;;;2.50;99.90;;;;;;5094600;28;20705;-61
2023/12/06 02:40:31;;;;;;;6.53;5.90;;;2.50;99.90;;;;;;5094662;28;20249;-61
2023/12/06 02:43:00;;;;;;;7.72;5.97;;;2.60;99.90;;;;;;5096431;28;20221;-61
2023/12/06 02:45:27;;;;;;;7.38;6.00;;;2.50;99.90;;;;;;5096356;28;20197;-61
2023/12/06 02:47:54;;;;;;;6.78;5.95;;;2.50;99.90;;;;;;5095400;28;20254;-61
2023/12/06 02:50:20;;;;;;;7.22;5.55;;;2.50;99.90;;;;;;5094576;28;20206;-61
2023/12/06 02:52:47;;;;;;;12.85;6.25;;;2.50;99.90;;;;;;5094076;28;20227;-61
2023/12/06 02:55:14;;;;;;;6.95;5.78;;;2.50;99.90;;;;;;5094946;28;20573;-61
2023/12/06 02:57:41;;;;;;;8.30;6.60;;;2.50;99.90;;;;;;5094903;28;20211;-61
2023/12/06 03:00:10;;;;;;;8.25;5.82;;;2.50;99.90;;;;;;5094584;28;20673;-61
2023/12/06 03:02:37;;;;;;;6.60;6.00;;;2.50;99.90;;;;;;5094800;28;20232;-62
2023/12/06 03:05:04;;;;;;;6.68;5.95;;;2.40;99.90;;;;;;5095089;28;20200;-61
2023/12/06 03:07:31;;;;;;;6.10;5.50;;;2.50;99.90;;;;;;5096405;28;20688;-61
2023/12/06 03:09:57;;;;;;;7.55;6.32;;;2.50;99.90;;;;;;5094193;28;20204;-62
2023/12/06 03:12:24;;;;;;;5.85;4.90;;;2.50;99.90;;;;;;5096684;28;20220;-60
2023/12/06 03:14:51;;;;;;;8.27;6.00;;;2.50;99.90;;;;;;5097335;28;20222;-60
2023/12/06 03:17:19;;;;;;;7.60;5.95;;;2.50;99.90;;;;;;5096300;28;20211;-62
2023/12/06 03:19:46;;;;;;;6.47;5.85;;;2.40;99.90;;;;;;5096437;28;20216;-61
2023/12/06 03:22:13;;;;;;;8.30;6.53;;;2.40;99.90;;;;;;5098269;28;20644;-60
2023/12/06 03:24:40;;;;;;;5.70;5.05;;;2.40;99.90;;;;;;5098192;28;20204;-60
2023/12/06 03:27:07;;;;;;;5.30;4.78;;;2.40;99.90;;;;;;5095624;28;20569;-61
2023/12/06 03:29:34;;;;;;;8.27;6.45;;;2.40;99.90;;;;;;5095539;28;20207;-61
2023/12/06 03:32:00;;;;;;;8.48;5.75;;;2.40;99.90;;;;;;5094369;28;20226;-61
2023/12/06 03:34:28;;;;;;;7.95;7.00;;;2.40;99.90;;;;;;5094928;28;20205;-61
2023/12/06 03:36:55;;;;;;;9.43;7.15;;;2.40;99.90;;;;;;5094329;28;20203;-61
2023/12/06 03:39:22;;;;;;;8.30;6.28;;;2.40;99.90;;;;;;5094370;28;20220;-61
2023/12/06 03:41:49;;;;;;;8.60;7.35;;;2.30;99.90;;;;;;5094020;28;20224;-61
2023/12/06 03:44:15;;;;;;;10.85;8.95;;;2.30;99.90;;;;;;5094221;28;20197;-61
2023/12/06 03:46:42;;;;;;;8.43;7.13;;;2.20;99.90;;;;;;5095006;28;20257;-61
2023/12/06 03:49:09;;;;;;;10.93;7.78;;;2.20;99.90;;;;;;5093971;28;20207;-61
2023/12/06 03:51:37;;;;;;;8.82;7.15;;;2.20;99.90;;;;;;5093990;28;20228;-61
2023/12/06 03:54:05;;;;;;;11.05;7.80;;;2.10;99.90;;;;;;5094841;28;20207;-61
2023/12/06 03:56:32;;;;;;;10.50;7.57;;;2.10;99.90;;;;;;5094890;28;20250;-62
2023/12/06 03:58:59;;;;;;;11.32;8.73;;;2.10;99.90;;;;;;5094885;28;20223;-61
2023/12/06 04:01:26;;;;;;;12.63;8.70;;;2.10;99.90;;;;;;5095423;28;20232;-62
2023/12/06 04:03:52;;;;;;;11.77;8.90;;;2.10;99.90;;;;;;5094234;28;20276;-62
2023/12/06 04:06:19;;;;;;;12.43;8.65;;;2.00;99.90;;;;;;5095077;28;20206;-61
2023/12/06 04:08:47;;;;;;;11.45;8.68;;;2.00;99.90;;;;;;5093700;28;20204;-61
2023/12/06 04:12:41;;;;;;;11.38;8.40;;;2.00;99.90;;;;;;5112272;27;20609;-62
2023/12/06 04:15:09;;;;;;;14.60;9.95;;;2.00;99.90;;;;;;5111644;28;20207;-62
2023/12/06 04:17:35;;;;;;;12.82;9.30;;;2.00;99.90;;;;;;5111802;28;20577;-62
2023/12/06 04:20:04;;;;;;;20.58;11.52;;;2.00;99.90;;;;;;5111054;28;20578;-61
2023/12/06 04:22:31;;;;;;;16.55;10.98;;;2.00;99.90;;;;;;5112816;28;20215;-62
2023/12/06 04:24:57;;;;;;;15.73;10.90;;;1.90;99.90;;;;;;5115443;28;20199;-64
2023/12/06 04:27:24;;;;;;;15.73;9.18;;;1.90;99.90;;;;;;5117068;28;20249;-61
2023/12/06 04:29:52;;;;;;;13.13;9.63;;;1.90;99.90;;;;;;5113909;28;20203;-62
2023/12/06 04:32:19;;;;;;;16.77;10.50;;;1.90;99.90;;;;;;5113509;28;20227;-61
2023/12/06 04:34:55;;;;;;;16.38;11.20;;;1.90;99.90;;;;;;5112104;28;20274;-61
2023/12/06 04:37:22;;;;;;;13.10;9.75;;;1.90;99.90;;;;;;5111803;28;20267;-62
2023/12/06 04:39:49;;;;;;;15.18;9.90;;;1.80;99.90;;;;;;5112132;28;20210;-62
2023/12/06 04:42:16;;;;;;;13.50;10.30;;;1.80;99.90;;;;;;5112633;28;20593;-61
2023/12/06 04:44:43;;;;;;;16.58;10.40;;;1.80;99.90;;;;;;5111435;28;20207;-63
2023/12/06 04:47:11;;;;;;;16.45;10.52;;;1.80;99.90;;;;;;5111418;28;20204;-63
2023/12/06 04:49:38;;;;;;;15.45;9.98;;;1.80;99.90;;;;;;5110387;28;20206;-62
2023/12/06 04:52:05;;;;;;;12.35;9.75;;;1.80;99.90;;;;;;5110188;28;20223;-63
2023/12/06 04:54:32;;;;;;;15.30;11.27;;;1.80;99.90;;;;;;5110161;28;20204;-63
2023/12/06 04:56:59;;;;;;;13.70;10.80;;;1.80;99.90;;;;;;5110149;28;20577;-63
2023/12/06 04:59:26;;;;;;;15.57;11.70;;;1.80;99.90;;;;;;5112259;28;20200;-62
2023/12/06 05:01:53;;;;;;;13.65;10.32;;;1.70;99.90;;;;;;5112515;28;20223;-62
2023/12/06 05:04:22;;;;;;;16.45;12.38;;;1.70;99.90;;;;;;5112039;28;20227;-62
2023/12/06 05:06:49;;;;;;;16.52;11.85;;;1.70;99.90;;;;;;5111988;28;20207;-62
2023/12/06 05:09:16;;;;;;;17.30;11.40;;;1.70;99.90;;;;;;5111641;28;20215;-63
2023/12/06 05:11:43;;;;;;;18.02;12.63;;;1.70;99.90;;;;;;5111184;28;20251;-63
2023/12/06 05:14:09;;;;;;;16.58;11.98;;;1.70;99.90;;;;;;5112155;28;20222;-63
2023/12/06 05:16:36;;;;;;;19.75;13.93;;;1.70;99.90;;;;;;5112399;28;20199;-63
2023/12/06 05:19:03;;;;;;;19.20;14.13;;;1.70;99.90;;;;;;5111103;28;20204;-62
2023/12/06 05:21:31;;;;;;;23.20;14.43;;;1.70;99.90;;;;;;5111205;28;20222;-63
2023/12/06 05:23:58;;;;;;;20.20;13.05;;;1.70;99.90;;;;;;5097588;28;20204;-64
2023/12/06 05:26:26;;;;;;;21.30;14.80;;;1.70;99.90;;;;;;5097069;28;20326;-62
2023/12/06 05:28:54;;;;;;;20.58;14.85;;;1.60;99.90;;;;;;5096968;28;20208;-63
2023/12/06 05:31:21;;;;;;;23.80;15.65;;;1.70;99.90;;;;;;5096339;28;20220;-63
2023/12/06 05:33:48;;;;;;;19.70;13.10;;;1.70;99.90;;;;;;5096627;28;20201;-63
2023/12/06 05:36:15;;;;;;;19.70;12.38;;;1.60;99.90;;;;;;5097000;28;20197;-62
2023/12/06 05:38:43;;;;;;;21.90;15.55;;;1.60;99.90;;;;;;5099185;28;20200;-63
2023/12/06 05:41:10;;;;;;;22.27;15.00;;;1.60;99.90;;;;;;5099341;28;20303;-64
2023/12/06 05:43:37;;;;;;;20.15;13.88;;;1.60;99.90;;;;;;5099789;28;20209;-64
2023/12/06 05:46:04;;;;;;;20.70;13.90;;;1.60;99.90;;;;;;5099430;28;20212;-62
2023/12/06 05:48:31;;;;;;;20.30;14.75;;;1.50;99.90;;;;;;5098745;28;20670;-62
2023/12/06 05:50:58;;;;;;;23.85;15.25;;;1.50;99.90;;;;;;5099552;28;20211;-63
2023/12/06 05:53:25;;;;;;;25.83;15.23;;;1.50;99.90;;;;;;5098463;28;20208;-62
2023/12/06 05:55:52;;;;;;;28.58;14.93;;;1.50;99.90;;;;;;5097966;28;20219;-62
2023/12/06 05:58:18;;;;;;;26.75;14.95;;;1.50;99.90;;;;;;5097068;28;20655;-63
2023/12/06 06:00:45;;;;;;;21.30;14.10;;;1.50;99.90;;;;;;5097022;28;20680;-62
2023/12/06 06:03:12;;;;;;;20.42;13.90;;;1.50;99.90;;;;;;5097227;28;20287;-62
2023/12/06 06:05:39;;;;;;;22.48;14.48;;;1.50;99.90;;;;;;5097414;28;20238;-62
2023/12/06 06:08:06;;;;;;;21.50;14.07;;;1.40;99.90;;;;;;5097877;28;20197;-62
2023/12/06 06:10:32;;;;;;;23.95;14.48;;;1.50;99.90;;;;;;5097498;28;20223;-62
2023/12/06 06:13:01;;;;;;;19.63;14.02;;;1.50;99.90;;;;;;5097778;28;20228;-62
2023/12/06 06:15:27;;;;;;;21.65;15.25;;;1.50;99.90;;;;;;5097275;28;20549;-63
2023/12/06 06:17:54;;;;;;;21.90;14.40;;;1.50;99.90;;;;;;5097643;28;20204;-63
2023/12/06 06:20:21;;;;;;;26.10;14.70;;;1.50;99.90;;;;;;5096407;28;20227;-62
2023/12/06 06:22:48;;;;;;;19.38;13.60;;;1.50;99.90;;;;;;5096003;28;20217;-61
2023/12/06 06:25:15;;;;;;;26.52;13.35;;;1.50;99.90;;;;;;5096172;28;20200;-63
2023/12/06 06:27:42;;;;;;;22.67;14.95;;;1.50;99.90;;;;;;5096279;28;20239;-62
2023/12/06 06:30:11;;;;;;;24.85;15.60;;;1.40;99.90;;;;;;5096789;28;20204;-61
2023/12/06 06:32:38;;;;;;;19.25;13.82;;;1.40;99.90;;;;;;5097773;28;20226;-62
2023/12/06 06:35:07;;;;;;;25.13;16.40;;;1.40;99.90;;;;;;5098031;28;20204;-62
2023/12/06 06:37:34;;;;;;;21.58;15.20;;;1.40;99.90;;;;;;5099004;28;20204;-62
2023/12/06 06:40:01;;;;;;;22.48;15.27;;;1.40;99.90;;;;;;5100353;28;20206;-63
2023/12/06 06:42:27;;;;;;;24.50;16.30;;;1.30;99.90;;;;;;5100321;28;20226;-63
2023/12/06 06:44:55;;;;;;;20.65;15.90;;;1.40;99.90;;;;;;5102350;28;20204;-63
2023/12/06 06:47:26;;;;;;;26.08;15.43;;;1.40;99.90;;;;;;5101150;28;20235;-62
2023/12/06 06:49:53;;;;;;;22.85;16.10;;;1.40;99.90;;;;;;5097355;28;20189;-63
2023/12/06 06:52:20;;;;;;;24.60;16.20;;;1.40;99.90;;;;;;5095687;28;20692;-63
2023/12/06 06:54:47;;;;;;;23.63;15.40;;;1.40;99.90;;;;;;5096321;28;20254;-64
2023/12/06 06:57:14;;;;;;;24.45;15.75;;;1.40;99.90;;;;;;5096975;28;20254;-62
2023/12/06 06:59:40;;;;;;;22.02;15.48;;;1.30;99.90;;;;;;5096780;28;20206;-63
2023/12/06 07:02:08;;;;;;;20.75;14.73;;;1.30;99.90;;;;;;5096111;28;20223;-62
2023/12/06 07:04:36;;;;;;;22.67;15.60;;;1.30;99.90;;;;;;5095057;28;20204;-63
2023/12/06 07:07:03;;;;;;;24.00;15.20;;;1.30;99.90;;;;;;5096026;28;20700;-62
2023/12/06 07:09:30;;;;;;;22.90;15.23;;;1.40;99.90;;;;;;5096309;28;20200;-63
2023/12/06 07:11:57;;;;;;;25.05;16.27;;;1.40;99.90;;;;;;5096185;28;20224;-63
2023/12/06 07:14:23;;;;;;;24.60;14.35;;;1.40;99.90;;;;;;5097760;28;20212;-63
2023/12/06 07:16:50;;;;;;;25.30;16.70;;;1.40;99.90;;;;;;5098422;28;20196;-64
2023/12/06 07:19:17;;;;;;;22.55;16.00;;;1.40;99.90;;;;;;5098190;28;20200;-63
2023/12/06 07:21:45;;;;;;;22.08;15.18;;;1.40;99.90;;;;;;5097281;28;20399;-63
2023/12/06 07:24:12;;;;;;;19.42;12.93;;;1.40;99.90;;;;;;5098134;28;20212;-62
2023/12/06 07:26:39;;;;;;;20.75;14.85;;;1.40;99.90;;;;;;5096667;28;20201;-63
2023/12/06 07:29:06;;;;;;;23.80;15.15;;;1.30;99.90;;;;;;5095582;28;20200;-64
2023/12/06 07:31:33;;;;;;;24.10;14.95;;;1.30;99.90;;;;;;5095136;28;20246;-62
2023/12/06 07:34:00;;;;;;;23.70;15.82;;;1.30;99.90;;;;;;5096045;28;20197;-63
2023/12/06 07:36:26;;;;;;;19.73;14.93;;;1.30;99.90;;;;;;5094662;28;20211;-63
2023/12/06 07:38:55;;;;;;;22.77;14.85;;;1.30;99.90;;;;;;5094847;28;20205;-64
2023/12/06 07:41:21;;;;;;;26.25;17.02;;;1.30;99.90;;;;;;5095077;28;20220;-64
2023/12/06 07:43:48;;;;;;;25.50;15.15;;;1.30;99.90;;;;;;5094742;28;20561;-64
2023/12/06 07:46:15;;;;;;;22.63;14.18;;;1.40;99.90;;;;;;5095699;28;20691;-63
2023/12/06 07:48:42;;;;;;;21.45;15.45;;;1.40;99.90;;;;;;5093940;28;20708;-62
2023/12/06 07:51:09;;;;;;;22.55;16.67;;;1.40;99.90;;;;;;5094394;28;20224;-64
2023/12/06 07:53:35;;;;;;;24.23;15.90;;;1.40;99.90;;;;;;5094460;28;20224;-62
2023/12/06 07:56:04;;;;;;;23.25;14.40;;;1.40;99.90;;;;;;5094489;28;20200;-63
2023/12/06 07:58:31;;;;;;;22.55;15.75;;;1.50;99.90;;;;;;5093758;28;20204;-61
2023/12/06 08:00:59;;;;;;;21.17;14.23;;;1.50;99.90;;;;;;5093935;28;20204;-61
2023/12/06 08:03:30;;;;;;;25.50;15.48;;;1.50;99.90;;;;;;5094012;28;20202;-62
2023/12/06 08:05:59;;;;;;;21.83;15.10;;;1.50;99.90;;;;;;5095112;28;20185;-61
2023/12/06 08:08:26;;;;;;;22.83;15.30;;;1.50;99.90;;;;;;5096506;28;20257;-61
2023/12/06 08:10:53;;;;;;;18.92;14.98;;;1.50;99.90;;;;;;5096385;28;20223;-61
2023/12/06 08:13:24;;;;;;;28.08;15.45;;;1.50;99.90;;;;;;5097459;28;20228;-62
2023/12/06 08:15:51;;;;;;;17.50;14.20;;;1.50;99.90;;;;;;5095629;28;20189;-61
2023/12/06 08:18:18;;;;;;;22.17;15.02;;;1.50;99.90;;;;;;5095974;28;20196;-61
2023/12/06 08:20:45;;;;;;;19.48;13.13;;;1.60;99.90;;;;;;5096396;28;20666;-62
2023/12/06 08:23:11;;;;;;;22.48;15.05;;;1.60;99.90;;;;;;5096814;28;20200;-61
2023/12/06 08:25:40;;;;;;;22.45;14.50;;;1.60;99.90;;;;;;5097099;28;20205;-61
2023/12/06 08:28:06;;;;;;;20.13;12.82;;;1.50;99.90;;;;;;5096562;28;20723;-60
2023/12/06 08:30:34;;;;;;;17.40;13.25;;;1.50;99.90;;;;;;5097372;28;20235;-61
2023/12/06 08:33:01;;;;;;;22.95;14.75;;;1.50;99.90;;;;;;5098035;28;20231;-61
2023/12/06 08:35:28;;;;;;;22.70;14.25;;;1.50;99.90;;;;;;5097878;28;20200;-62
2023/12/06 08:37:55;;;;;;;23.60;14.95;;;1.50;99.90;;;;;;5096924;28;20220;-61
2023/12/06 08:40:24;;;;;;;24.23;15.63;;;1.50;99.90;;;;;;5095048;28;20564;-61
2023/12/06 08:42:51;;;;;;;20.55;14.85;;;1.50;99.90;;;;;;5097835;28;20231;-61
2023/12/06 08:45:18;;;;;;;22.02;15.05;;;1.50;99.90;;;;;;5098442;28;20267;-61
2023/12/06 08:47:46;;;;;;;23.73;15.07;;;1.50;99.90;;;;;;5098780;28;20319;-61
2023/12/06 08:50:14;;;;;;;26.88;17.75;;;1.50;99.90;;;;;;5098449;28;20212;-61
2023/12/06 08:52:42;;;;;;;24.00;16.83;;;1.50;99.90;;;;;;5097575;28;20216;-61
2023/12/06 08:55:09;;;;;;;24.63;16.35;;;1.50;99.90;;;;;;5099821;28;20204;-61
2023/12/06 08:57:36;;;;;;;27.40;16.50;;;1.60;99.90;;;;;;5103593;28;20200;-61
2023/12/06 09:00:07;;;;;;;23.30;15.30;;;1.50;99.90;;;;;;5104062;28;20200;-62
2023/12/06 09:02:34;;;;;;;25.73;16.92;;;1.60;99.90;;;;;;5104146;28;20318;-61
2023/12/06 09:05:02;;;;;;;23.88;15.88;;;1.60;99.90;;;;;;5103188;28;20262;-60
2023/12/06 09:07:29;;;;;;;26.75;17.38;;;1.50;99.90;;;;;;5102092;28;20666;-60
2023/12/06 09:09:56;;;;;;;23.42;14.93;;;1.40;99.90;;;;;;5101964;28;20200;-61
2023/12/06 09:12:23;;;;;;;25.70;16.00;;;1.40;99.90;;;;;;5099297;28;20246;-61
2023/12/06 09:14:49;;;;;;;29.38;17.40;;;1.30;99.90;;;;;;5099571;28;20204;-61
2023/12/06 09:17:16;;;;;;;24.33;15.90;;;1.30;99.90;;;;;;5100373;28;20294;-61
2023/12/06 09:19:43;;;;;;;24.70;17.52;;;1.30;99.90;;;;;;5101139;28;20206;-62
2023/12/06 09:22:11;;;;;;;30.67;18.35;;;1.30;99.90;;;;;;5101405;28;20303;-60
2023/12/06 09:24:38;;;;;;;29.95;19.05;;;1.20;99.90;;;;;;5102946;28;20206;-61
2023/12/06 09:27:05;;;;;;;31.65;20.45;;;1.20;99.90;;;;;;5100185;28;20291;-61
2023/12/06 09:29:33;;;;;;;32.17;20.77;;;1.20;99.90;;;;;;5100763;28;20200;-61
2023/12/06 09:32:00;;;;;;;27.13;17.70;;;1.20;99.90;;;;;;5100277;28;20331;-61
2023/12/06 09:34:26;;;;;;;31.67;19.58;;;1.30;99.90;;;;;;5099041;28;20700;-61
2023/12/06 09:36:53;;;;;;;30.33;19.95;;;1.20;99.90;;;;;;5099528;28;20661;-61
2023/12/06 09:39:22;;;;;;;32.30;21.05;;;1.20;99.90;;;;;;5097204;28;20245;-61
2023/12/06 09:41:50;;;;;;;31.55;19.67;;;1.30;99.90;;;;;;5096436;28;20538;-61
2023/12/06 09:44:17;;;;;;;32.90;20.40;;;1.30;99.90;;;;;;5096257;28;20204;-61
2023/12/06 09:46:45;;;;;;;35.55;20.95;;;1.30;99.90;;;;;;5097084;28;20204;-61
2023/12/06 09:49:12;;;;;;;32.78;19.80;;;1.30;99.90;;;;;;5096168;28;20197;-61
2023/12/06 09:51:39;;;;;;;33.35;21.40;;;1.40;99.90;;;;;;5096620;28;20311;-62
2023/12/06 09:54:06;;;;;;;32.55;20.55;;;1.40;99.90;;;;;;5097319;28;20591;-61
2023/12/06 09:56:35;;;;;;;33.38;22.15;;;1.40;99.90;;;;;;5098996;28;20207;-60
2023/12/06 09:59:02;;;;;;;36.60;21.67;;;1.40;99.90;;;;;;5098272;28;20713;-60
2023/12/06 10:01:29;;;;;;;38.67;21.95;;;1.40;99.90;;;;;;5097246;28;20224;-62
2023/12/06 10:03:56;;;;;;;34.08;21.90;;;1.40;99.90;;;;;;5097471;28;20282;-62
2023/12/06 10:06:23;;;;;;;40.47;24.25;;;1.40;99.90;;;;;;5097597;28;20216;-62
2023/12/06 10:08:54;;;;;;;36.63;22.90;;;1.50;99.90;;;;;;5097338;28;20204;-61
2023/12/06 10:11:23;;;;;;;35.22;24.05;;;1.50;99.90;;;;;;5097127;28;20224;-61
2023/12/06 10:13:53;;;;;;;37.03;24.35;;;1.50;99.90;;;;;;5097164;28;20222;-62
2023/12/06 10:16:22;;;;;;;35.55;22.40;;;1.50;99.90;;;;;;5099473;28;20295;-62
2023/12/06 10:18:52;;;;;;;39.13;24.50;;;1.50;99.90;;;;;;5099142;28;20200;-62
2023/12/06 10:21:20;;;;;;;36.72;22.88;;;1.40;99.90;;;;;;5098449;28;20220;-62
2023/12/06 10:23:54;;;;;;;39.58;24.90;;;1.40;99.90;;;;;;5098417;28;20610;-60
2023/12/06 10:26:21;;;;;;;41.40;24.90;;;1.50;99.90;;;;;;5098876;28;20183;-61
2023/12/06 10:28:48;;;;;;;38.65;26.42;;;1.50;99.90;;;;;;5097814;28;20678;-60
2023/12/06 10:31:17;;;;;;;36.00;24.52;;;1.50;99.90;;;;;;5097224;28;20220;-60
2023/12/06 10:33:45;;;;;;;38.78;25.85;;;1.50;99.90;;;;;;5097543;28;20220;-62
2023/12/06 10:36:14;;;;;;;43.78;26.75;;;1.50;99.90;;;;;;5098156;28;20196;-62
2023/12/06 10:38:42;;;;;;;42.63;24.02;;;1.40;99.90;;;;;;5098033;28;20197;-62
2023/12/06 10:41:10;;;;;;;45.53;26.15;;;1.40;99.90;;;;;;5097367;28;20228;-61
2023/12/06 10:43:39;;;;;;;35.33;22.95;;;1.40;99.90;;;;;;5097793;28;20569;-60
2023/12/06 10:46:07;;;;;;;39.17;24.60;;;1.40;99.90;;;;;;5098283;28;20211;-61
2023/12/06 10:48:36;;;;;;;35.35;21.98;;;1.40;99.90;;;;;;5096389;28;20205;-60
2023/12/06 10:51:04;;;;;;;36.13;23.13;;;1.40;99.90;;;;;;5096949;28;20523;-61
2023/12/06 10:53:32;;;;;;;35.20;24.55;;;1.40;99.90;;;;;;5098239;28;20226;-61
2023/12/06 10:56:01;;;;;;;34.63;22.70;;;1.40;99.90;;;;;;5098729;28;20200;-61
2023/12/06 10:58:28;;;;;;;38.42;24.85;;;1.40;99.90;;;;;;5099617;28;20210;-60
2023/12/06 11:00:55;;;;;;;37.50;23.08;;;1.40;99.90;;;;;;5099976;28;20196;-61
2023/12/06 11:03:22;;;;;;;37.72;24.27;;;1.40;99.90;;;;;;5102712;28;20200;-61
2023/12/06 11:05:54;;;;;;;37.70;24.58;;;1.50;99.90;;;;;;5101978;28;20295;-62
2023/12/06 11:08:40;;;;;;;36.70;23.40;;;1.50;99.90;;;;;;5096247;28;20181;-61
2023/12/06 11:11:28;;;;;;;38.97;25.50;;;1.60;99.90;;;;;;5097419;28;20236;-60
2023/12/06 11:14:06;;;;;;;33.40;21.70;;;1.60;99.90;;;;;;5097743;28;20268;-62
2023/12/06 11:16:47;;;;;;;42.50;25.30;;;1.60;99.90;;;;;;5102777;28;20180;-62
2023/12/06 11:19:15;;;;;;;38.50;25.50;;;1.50;99.90;;;;;;5100833;28;20621;-62
2023/12/06 11:21:44;;;;;;;38.58;25.15;;;1.50;99.90;;;;;;5096502;28;20246;-62
2023/12/06 11:24:11;;;;;;;41.50;26.10;;;1.50;99.90;;;;;;5096774;28;20196;-62
2023/12/06 11:26:38;;;;;;;37.30;23.75;;;1.60;99.90;;;;;;5100646;28;20632;-62
2023/12/06 11:29:07;;;;;;;40.78;23.85;;;1.60;99.90;;;;;;5099927;28;20231;-62
2023/12/06 11:31:35;;;;;;;40.08;26.35;;;1.60;99.90;;;;;;5100781;28;20220;-62
2023/12/06 11:34:04;;;;;;;37.88;23.75;;;1.60;99.90;;;;;;5098084;28;20584;-62
2023/12/06 11:36:31;;;;;;;39.70;25.17;;;1.60;99.90;;;;;;5096057;28;20204;-61
2023/12/06 11:38:59;;;;;;;36.85;23.63;;;1.60;99.90;;;;;;5096697;28;20576;-62
2023/12/06 11:41:26;;;;;;;36.97;23.20;;;1.60;99.90;;;;;;5096865;28;20311;-63
2023/12/06 11:43:54;;;;;;;40.28;24.90;;;1.50;99.90;;;;;;5096216;28;20666;-62
2023/12/06 11:46:22;;;;;;;39.67;24.42;;;1.50;99.90;;;;;;5098010;28;20219;-61
2023/12/06 11:48:50;;;;;;;37.83;22.90;;;1.50;99.90;;;;;;5097950;28;20211;-61
2023/12/06 11:51:21;;;;;;;37.90;23.13;;;1.50;99.90;;;;;;5095501;28;20216;-61
2023/12/06 11:53:48;;;;;;;40.60;25.55;;;1.40;99.90;;;;;;5094181;28;20252;-61
2023/12/06 11:56:22;;;;;;;38.65;26.23;;;1.40;99.90;;;;;;5094935;28;20240;-61
2023/12/06 11:58:50;;;;;;;36.22;23.83;;;1.40;99.90;;;;;;5094895;28;20185;-62
2023/12/06 12:01:18;;;;;;;35.40;23.65;;;1.40;99.90;;;;;;5096022;28;20219;-61
2023/12/06 12:03:47;;;;;;;40.20;24.58;;;1.40;99.90;;;;;;5098155;28;20198;-61
2023/12/06 12:06:15;;;;;;;44.22;26.77;;;1.40;99.90;;;;;;5095793;28;20196;-60
2023/12/06 12:08:42;;;;;;;40.05;24.35;;;1.40;99.90;;;;;;5098614;28;20196;-62
2023/12/06 12:11:10;;;;;;;37.92;24.35;;;1.40;99.90;;;;;;5096954;28;20300;-61
2023/12/06 12:13:39;;;;;;;36.10;22.75;;;1.40;99.90;;;;;;5096622;28;20227;-59
2023/12/06 12:16:07;;;;;;;37.88;24.58;;;1.40;99.90;;;;;;5097405;28;20204;-61
2023/12/06 12:18:34;;;;;;;36.67;23.85;;;1.40;99.90;;;;;;5095821;28;20204;-62
2023/12/06 12:21:08;;;;;;;33.40;21.48;;;1.30;99.90;;;;;;5094848;28;20204;-61
2023/12/06 12:23:35;;;;;;;41.72;23.70;;;1.30;99.90;;;;;;5095362;28;20176;-62
2023/12/06 12:26:01;;;;;;;34.72;22.42;;;1.20;99.90;;;;;;5099056;28;20205;-62
2023/12/06 12:28:29;;;;;;;39.55;24.52;;;1.20;99.90;;;;;;5096296;28;20199;-62
2023/12/06 12:31:01;;;;;;;39.70;24.05;;;1.20;99.90;;;;;;5095628;28;20204;-61
2023/12/06 12:33:29;;;;;;;35.10;22.95;;;1.20;99.90;;;;;;5098135;28;20208;-61
2023/12/06 12:35:56;;;;;;;38.92;22.30;;;1.20;99.90;;;;;;5100771;28;20206;-62
2023/12/06 12:38:24;;;;;;;36.20;23.00;;;1.20;99.90;;;;;;5100036;28;20597;-62
2023/12/06 12:40:52;;;;;;;37.75;22.63;;;1.20;99.90;;;;;;5100413;28;20204;-61
2023/12/06 12:43:19;;;;;;;38.30;25.10;;;1.30;99.90;;;;;;5102422;28;20248;-61